Es ist keine erhöhte Aufmerksamkeit aufgrund des Wetters notwendig.    Es gibt keine Warnungen.

Meine Webcam more information My webcam


Donnerradar more information blitzortung!


Regenradar more information rain snow radar



METAR-Meldungen aus der Umgebung

   
EDDH - Hamburg
Aktualisierung: 24-01-2020 12:20
Nebel, Bewölkt  
Nebel, Bewölkt  
   Wind: SW 13 km/h
Wind: SW 13 km/h
Temperatur: 2°C
Gefühlt: -2°C
Taupunkt: 1°C
Luftfeuchte: 93%
Luftdruck: 1021 hPa
Bewölkt: Bewölkt
Sichtbarkeit: 3 km
Bewölkung: Stark bewölkt 300 ft,
Bewölkt 400 ft
EDDH 241120Z 22007KT 2900 BR BKN003 OVC004 02/01 Q1021 TEMPO 3500
EDHL - Lübeck
Aktualisierung: 24-01-2020 12:20
Nebel, Bewölkt  
Nebel, Bewölkt  
   Wind: WSW 9.3 km/h
Wind: WSW 9.3 km/h
Temperatur: 3°C
Gefühlt: 1°C
Taupunkt: 2°C
Luftfeuchte: 93%
Luftdruck: 1021 hPa
Bewölkt: Bewölkt
Sichtbarkeit: 3 km
Bewölkung: Bewölkt 300 ft
EDHL 241120Z 24005KT 210V270 3000 BR OVC003 03/02 Q1021
EHBK - Amsterdam
Aktualisierung: 24-01-2020 12:25
Nebel, Bewölkt  
Nebel, Bewölkt  
   Wind: SW 7.4 km/h
Wind: SW 7.4 km/h
Temperatur: 0°C
Gefühlt: -3°C
Taupunkt: -1°C
Luftfeuchte: 93%
Luftdruck: 1024 hPa
Bewölkt: Bewölkt
Sichtbarkeit: 5 km
Bewölkung: Bewölkt 700 ft
EHBK 241125Z AUTO 23004KT 200V290 5000 BR OVC007 00/M01 Q1024 TEMPO 4500
EBCV - Mons/Bergen
Aktualisierung: 24-01-2020 11:55
Nebel, Bewölkt  
Nebel, Bewölkt  
   Wind: SW 7.4 km/h
Wind: SW 7.4 km/h
Temperatur: 2°C
Gefühlt: 0°C
Taupunkt: 0°C
Luftfeuchte: 87%
Luftdruck: 1024 hPa
Bewölkt: Bewölkt
Sichtbarkeit: 5 km
Bewölkung: Bewölkt 800 ft
EBCV 241055Z AUTO 23004KT 4700 BR OVC008/// 02/00 Q1024 GRN
ELLX - Luxemburg
Aktualisierung: 24-01-2020 12:20
Freezing, Nebel, Stark bewölkt  
Freezing, Nebel, Stark bewölkt  
   Wind: Süden 7.4 km/h
Wind: Süden 7.4 km/h
Temperatur: -1°C
Gefühlt: -4°C
Taupunkt: -1°C
Luftfeuchte: 100%
Luftdruck: 1022 hPa
Bewölkt: Stark bewölkt
Sichtbarkeit: 0 km
Bewölkung: Stark bewölkt
ELLX 241120Z 19004KT 150V230 0250 R24/0400V0800D FZFG BKN000 M01/M01 Q1022 NOSIG
EBOS - Oostende
Aktualisierung: 24-01-2020 12:20
Nebel, Stark bewölkt  
Nebel, Stark bewölkt  
   Wind: Süden 9.3 km/h
Wind: Süden 9.3 km/h
Temperatur: 1°C
Gefühlt: -2°C
Taupunkt: 1°C
Luftfeuchte: 100%
Luftdruck: 1024 hPa
Bewölkt: Stark bewölkt
Sichtbarkeit: 2 km
Bewölkung: Stark bewölkt 200 ft,
Stark bewölkt 300 ft
EBOS 241120Z 19005KT 2000 BR BKN002 BKN003 01/01 Q1024 TEMPO 3200 BR SCT002

Script entwickelt von  Saratoga-weather.org Angepasst für das Template von  Weerstation Leuven

Sie finden meine Wetter-Infos auch auf:

Weather Underground

Germany Weather Network

AWEKAS

WeatherlinkIP

Von mir verwendete Ausrüstung:

Wetterstation
Davis VP2

Wetterprogramm
Weather Display

WetterComputer
RaspberryPi

Anbieter
1und1

Davis VP2

Weather Display

RaspberryPi

1und1